70AR weather

Randal Field
Gosnell, Arkansas, United States

Public forecast

Using degrees Fahrenheit for public forecast. Weather courtesy of forecast.io.

Closest aviation weather report (METAR) to Randal Field

Closest report is Arkansas International Airport, 3.2 nm (5.9 km) SE. Retrieved 2020/06/01 17:58 UTC (2 hours ago):

KBYH 011758Z 07006KT 10SM SKC 27/08 A3020

Closest aviation forecast (TAF) to Randal Field

Closest forecast is Jonesboro Municipal Airport, 33.0 nm (61.2 km) WSW. Retrieved 2020/06/01 18:33 UTC (1 hour ago):

TAF KJBR 011730Z 0118/0218 10007KT P6SM SKC FM020100 VRB03KT P6SM SKC FM021500 21005KT P6SM SKC AMD NOT SKED